sensor_id;sensor_type;location;lat;lon;timestamp;P1;durP1;ratioP1;P2;durP2;ratioP2
57697;SDS011;43531;52.152;6.366;2024-03-06T00:02:12;25.73;;;15.27;;
57697;SDS011;43531;52.152;6.366;2024-03-06T00:03:39;23.45;;;16.27;;
57697;SDS011;43531;52.152;6.366;2024-03-06T00:05:36;24.55;;;14.95;;
57697;SDS011;43531;52.152;6.366;2024-03-06T00:08:27;26.88;;;16.35;;
57697;SDS011;43531;52.152;6.366;2024-03-06T00:12:02;25.30;;;14.93;;
57697;SDS011;43531;52.152;6.366;2024-03-06T00:20:32;23.80;;;14.70;;
57697;SDS011;43531;52.152;6.366;2024-03-06T00:22:20;26.50;;;14.52;;
57697;SDS011;43531;52.152;6.366;2024-03-06T00:29:57;34.03;;;17.13;;
57697;SDS011;43531;52.152;6.366;2024-03-06T00:31:22;27.77;;;17.30;;
57697;SDS011;43531;52.152;6.366;2024-03-06T00:45:41;22.88;;;15.52;;
57697;SDS011;43531;52.152;6.366;2024-03-06T00:49:38;24.00;;;14.65;;
57697;SDS011;43531;52.152;6.366;2024-03-06T00:51:48;24.83;;;15.43;;
57697;SDS011;43531;52.152;6.366;2024-03-06T00:54:02;22.48;;;15.05;;
57697;SDS011;43531;52.152;6.366;2024-03-06T01:00:52;27.90;;;17.35;;
57697;SDS011;43531;52.152;6.366;2024-03-06T01:02:59;24.77;;;17.15;;
57697;SDS011;43531;52.152;6.366;2024-03-06T01:10:30;22.65;;;15.63;;
57697;SDS011;43531;52.152;6.366;2024-03-06T01:17:37;28.13;;;17.92;;
57697;SDS011;43531;52.152;6.366;2024-03-06T01:18:11;28.70;;;18.88;;
57697;SDS011;43531;52.152;6.366;2024-03-06T01:18:47;24.70;;;16.80;;
57697;SDS011;43531;52.152;6.366;2024-03-06T01:20:20;26.92;;;16.77;;
57697;SDS011;43531;52.152;6.366;2024-03-06T01:21:13;28.67;;;18.38;;
57697;SDS011;43531;52.152;6.366;2024-03-06T01:22:34;25.15;;;17.33;;
57697;SDS011;43531;52.152;6.366;2024-03-06T01:23:35;26.33;;;17.98;;
57697;SDS011;43531;52.152;6.366;2024-03-06T01:24:34;29.58;;;20.20;;
57697;SDS011;43531;52.152;6.366;2024-03-06T01:25:15;24.58;;;18.90;;
57697;SDS011;43531;52.152;6.366;2024-03-06T01:26:53;26.73;;;16.73;;
57697;SDS011;43531;52.152;6.366;2024-03-06T01:27:53;27.77;;;19.20;;
57697;SDS011;43531;52.152;6.366;2024-03-06T01:28:42;33.42;;;20.73;;
57697;SDS011;43531;52.152;6.366;2024-03-06T01:29:22;27.35;;;19.55;;
57697;SDS011;43531;52.152;6.366;2024-03-06T01:30:18;37.13;;;19.33;;
57697;SDS011;43531;52.152;6.366;2024-03-06T01:31:00;28.38;;;18.73;;
57697;SDS011;43531;52.152;6.366;2024-03-06T01:31:34;28.95;;;21.15;;
57697;SDS011;43531;52.152;6.366;2024-03-06T01:32:57;30.55;;;19.05;;
57697;SDS011;43531;52.152;6.366;2024-03-06T01:33:56;33.00;;;19.77;;
57697;SDS011;43531;52.152;6.366;2024-03-06T01:35:12;28.00;;;18.48;;
57697;SDS011;43531;52.152;6.366;2024-03-06T01:36:06;28.83;;;19.15;;
57697;SDS011;43531;52.152;6.366;2024-03-06T01:36:38;27.73;;;19.77;;
57697;SDS011;43531;52.152;6.366;2024-03-06T01:37:19;28.48;;;18.17;;
57697;SDS011;43531;52.152;6.366;2024-03-06T01:40:50;28.25;;;18.30;;
57697;SDS011;43531;52.152;6.366;2024-03-06T01:43:36;29.50;;;18.98;;
57697;SDS011;43531;52.152;6.366;2024-03-06T01:44:39;25.00;;;17.45;;
57697;SDS011;43531;52.152;6.366;2024-03-06T01:46:52;23.90;;;17.60;;
57697;SDS011;43531;52.152;6.366;2024-03-06T01:47:24;25.58;;;17.80;;
57697;SDS011;43531;52.152;6.366;2024-03-06T01:48:28;27.38;;;19.08;;
57697;SDS011;43531;52.152;6.366;2024-03-06T01:49:52;31.92;;;19.80;;
57697;SDS011;43531;52.152;6.366;2024-03-06T01:50:47;36.53;;;20.17;;
57697;SDS011;43531;52.152;6.366;2024-03-06T01:52:20;27.52;;;20.05;;
57697;SDS011;43531;52.152;6.366;2024-03-06T01:53:33;27.85;;;19.42;;
57697;SDS011;43531;52.152;6.366;2024-03-06T01:54:28;32.22;;;20.90;;
57697;SDS011;43531;52.152;6.366;2024-03-06T01:56:16;31.85;;;20.83;;
57697;SDS011;43531;52.152;6.366;2024-03-06T01:57:18;28.00;;;19.40;;
57697;SDS011;43531;52.152;6.366;2024-03-06T01:59:26;26.92;;;16.95;;
57697;SDS011;43531;52.152;6.366;2024-03-06T02:01:27;27.65;;;18.15;;
57697;SDS011;43531;52.152;6.366;2024-03-06T02:03:11;30.50;;;20.15;;
57697;SDS011;43531;52.152;6.366;2024-03-06T02:05:06;25.70;;;16.30;;
57697;SDS011;43531;52.152;6.366;2024-03-06T02:06:53;26.27;;;17.58;;
57697;SDS011;43531;52.152;6.366;2024-03-06T02:08:43;25.25;;;17.38;;
57697;SDS011;43531;52.152;6.366;2024-03-06T02:13:17;27.42;;;17.58;;
57697;SDS011;43531;52.152;6.366;2024-03-06T02:15:20;25.13;;;17.42;;
57697;SDS011;43531;52.152;6.366;2024-03-06T02:19:23;25.10;;;18.23;;
57697;SDS011;43531;52.152;6.366;2024-03-06T02:20:41;29.15;;;19.38;;
57697;SDS011;43531;52.152;6.366;2024-03-06T02:21:34;34.60;;;21.92;;
57697;SDS011;43531;52.152;6.366;2024-03-06T02:22:55;30.35;;;19.15;;
57697;SDS011;43531;52.152;6.366;2024-03-06T02:27:01;26.77;;;16.27;;
57697;SDS011;43531;52.152;6.366;2024-03-06T02:34:27;28.83;;;19.98;;
57697;SDS011;43531;52.152;6.366;2024-03-06T02:52:32;29.15;;;18.33;;
57697;SDS011;43531;52.152;6.366;2024-03-06T02:58:51;36.55;;;21.45;;
57697;SDS011;43531;52.152;6.366;2024-03-06T02:59:46;27.50;;;19.92;;
57697;SDS011;43531;52.152;6.366;2024-03-06T03:04:52;27.83;;;18.90;;
57697;SDS011;43531;52.152;6.366;2024-03-06T03:06:42;30.45;;;19.52;;
57697;SDS011;43531;52.152;6.366;2024-03-06T03:07:48;30.95;;;18.33;;
57697;SDS011;43531;52.152;6.366;2024-03-06T03:09:31;32.55;;;19.70;;
57697;SDS011;43531;52.152;6.366;2024-03-06T03:17:00;27.65;;;18.95;;
57697;SDS011;43531;52.152;6.366;2024-03-06T03:18:30;26.35;;;16.77;;
57697;SDS011;43531;52.152;6.366;2024-03-06T03:20:43;27.10;;;16.80;;
57697;SDS011;43531;52.152;6.366;2024-03-06T03:22:16;27.27;;;18.55;;
57697;SDS011;43531;52.152;6.366;2024-03-06T03:23:37;26.52;;;17.08;;
57697;SDS011;43531;52.152;6.366;2024-03-06T03:27:32;24.60;;;18.88;;
57697;SDS011;43531;52.152;6.366;2024-03-06T03:36:09;27.80;;;18.27;;
57697;SDS011;43531;52.152;6.366;2024-03-06T03:52:01;25.58;;;16.98;;
57697;SDS011;43531;52.152;6.366;2024-03-06T03:52:31;28.58;;;19.23;;
57697;SDS011;43531;52.152;6.366;2024-03-06T03:53:02;26.00;;;18.48;;
57697;SDS011;43531;52.152;6.366;2024-03-06T03:53:34;26.92;;;20.08;;
57697;SDS011;43531;52.152;6.366;2024-03-06T03:54:05;32.97;;;20.75;;
57697;SDS011;43531;52.152;6.366;2024-03-06T03:54:51;30.45;;;20.58;;
57697;SDS011;43531;52.152;6.366;2024-03-06T03:55:24;27.55;;;17.90;;
57697;SDS011;43531;52.152;6.366;2024-03-06T03:55:56;33.45;;;20.83;;
57697;SDS011;43531;52.152;6.366;2024-03-06T03:56:27;28.90;;;19.60;;
57697;SDS011;43531;52.152;6.366;2024-03-06T03:56:59;27.27;;;19.88;;
57697;SDS011;43531;52.152;6.366;2024-03-06T03:57:31;29.48;;;20.52;;
57697;SDS011;43531;52.152;6.366;2024-03-06T03:58:02;27.38;;;20.10;;
57697;SDS011;43531;52.152;6.366;2024-03-06T03:58:34;28.27;;;20.60;;
57697;SDS011;43531;52.152;6.366;2024-03-06T03:59:06;30.13;;;23.35;;
57697;SDS011;43531;52.152;6.366;2024-03-06T03:59:39;29.05;;;22.98;;
57697;SDS011;43531;52.152;6.366;2024-03-06T04:00:12;27.05;;;21.25;;
57697;SDS011;43531;52.152;6.366;2024-03-06T04:00:44;29.20;;;22.08;;
57697;SDS011;43531;52.152;6.366;2024-03-06T04:01:16;33.00;;;23.05;;
57697;SDS011;43531;52.152;6.366;2024-03-06T04:01:48;28.42;;;21.92;;
57697;SDS011;43531;52.152;6.366;2024-03-06T04:02:19;28.55;;;23.23;;
57697;SDS011;43531;52.152;6.366;2024-03-06T04:02:51;28.70;;;24.25;;
57697;SDS011;43531;52.152;6.366;2024-03-06T04:03:23;28.67;;;21.75;;
57697;SDS011;43531;52.152;6.366;2024-03-06T04:03:55;30.08;;;22.65;;
57697;SDS011;43531;52.152;6.366;2024-03-06T04:04:27;28.80;;;23.25;;
57697;SDS011;43531;52.152;6.366;2024-03-06T04:05:00;30.67;;;24.15;;
57697;SDS011;43531;52.152;6.366;2024-03-06T04:05:32;26.00;;;21.83;;
57697;SDS011;43531;52.152;6.366;2024-03-06T04:06:03;28.70;;;22.92;;
57697;SDS011;43531;52.152;6.366;2024-03-06T04:06:35;29.67;;;24.35;;
57697;SDS011;43531;52.152;6.366;2024-03-06T04:07:07;29.80;;;23.90;;
57697;SDS011;43531;52.152;6.366;2024-03-06T04:07:39;32.30;;;24.25;;
57697;SDS011;43531;52.152;6.366;2024-03-06T04:08:11;28.20;;;23.25;;
57697;SDS011;43531;52.152;6.366;2024-03-06T04:08:42;31.85;;;23.23;;
57697;SDS011;43531;52.152;6.366;2024-03-06T04:09:14;29.23;;;22.48;;
57697;SDS011;43531;52.152;6.366;2024-03-06T04:09:46;26.70;;;22.75;;
57697;SDS011;43531;52.152;6.366;2024-03-06T04:10:18;29.02;;;23.65;;
57697;SDS011;43531;52.152;6.366;2024-03-06T04:10:50;33.25;;;22.80;;
57697;SDS011;43531;52.152;6.366;2024-03-06T04:11:22;28.95;;;25.05;;
57697;SDS011;43531;52.152;6.366;2024-03-06T04:11:54;35.33;;;25.60;;
57697;SDS011;43531;52.152;6.366;2024-03-06T04:12:25;32.40;;;25.25;;
57697;SDS011;43531;52.152;6.366;2024-03-06T04:12:57;32.17;;;24.05;;
57697;SDS011;43531;52.152;6.366;2024-03-06T04:13:31;35.20;;;25.08;;
57697;SDS011;43531;52.152;6.366;2024-03-06T04:14:07;33.92;;;21.67;;
57697;SDS011;43531;52.152;6.366;2024-03-06T04:14:40;35.10;;;23.45;;
57697;SDS011;43531;52.152;6.366;2024-03-06T04:15:12;29.45;;;25.00;;
57697;SDS011;43531;52.152;6.366;2024-03-06T04:15:43;30.60;;;24.90;;
57697;SDS011;43531;52.152;6.366;2024-03-06T04:16:16;31.63;;;25.58;;
57697;SDS011;43531;52.152;6.366;2024-03-06T04:16:49;32.95;;;26.13;;
57697;SDS011;43531;52.152;6.366;2024-03-06T04:17:20;27.92;;;23.45;;
57697;SDS011;43531;52.152;6.366;2024-03-06T04:17:52;35.63;;;25.80;;
57697;SDS011;43531;52.152;6.366;2024-03-06T04:18:24;31.08;;;24.65;;
57697;SDS011;43531;52.152;6.366;2024-03-06T04:18:56;39.28;;;25.85;;
57697;SDS011;43531;52.152;6.366;2024-03-06T04:19:27;34.33;;;25.65;;
57697;SDS011;43531;52.152;6.366;2024-03-06T04:19:59;32.03;;;23.80;;
57697;SDS011;43531;52.152;6.366;2024-03-06T04:20:31;30.75;;;23.85;;
57697;SDS011;43531;52.152;6.366;2024-03-06T04:21:05;34.15;;;25.90;;
57697;SDS011;43531;52.152;6.366;2024-03-06T04:21:43;34.25;;;25.58;;
57697;SDS011;43531;52.152;6.366;2024-03-06T04:22:18;30.77;;;24.65;;
57697;SDS011;43531;52.152;6.366;2024-03-06T04:22:50;33.22;;;24.40;;
57697;SDS011;43531;52.152;6.366;2024-03-06T04:23:22;29.92;;;23.38;;
57697;SDS011;43531;52.152;6.366;2024-03-06T04:23:54;30.48;;;23.58;;
57697;SDS011;43531;52.152;6.366;2024-03-06T04:24:25;32.65;;;24.52;;
57697;SDS011;43531;52.152;6.366;2024-03-06T04:24:58;30.92;;;24.50;;
57697;SDS011;43531;52.152;6.366;2024-03-06T04:25:30;31.65;;;25.02;;
57697;SDS011;43531;52.152;6.366;2024-03-06T04:26:02;31.45;;;24.23;;
57697;SDS011;43531;52.152;6.366;2024-03-06T04:26:34;32.08;;;26.30;;
57697;SDS011;43531;52.152;6.366;2024-03-06T04:27:06;36.42;;;25.90;;
57697;SDS011;43531;52.152;6.366;2024-03-06T04:27:38;30.85;;;24.45;;
57697;SDS011;43531;52.152;6.366;2024-03-06T04:28:10;32.10;;;25.35;;
57697;SDS011;43531;52.152;6.366;2024-03-06T04:28:41;33.92;;;26.45;;
57697;SDS011;43531;52.152;6.366;2024-03-06T04:29:13;32.53;;;24.80;;
57697;SDS011;43531;52.152;6.366;2024-03-06T04:29:45;32.00;;;25.52;;
57697;SDS011;43531;52.152;6.366;2024-03-06T04:30:16;33.88;;;24.23;;
57697;SDS011;43531;52.152;6.366;2024-03-06T04:30:48;34.67;;;25.48;;
57697;SDS011;43531;52.152;6.366;2024-03-06T04:31:20;30.35;;;23.35;;
57697;SDS011;43531;52.152;6.366;2024-03-06T04:31:51;32.38;;;24.73;;
57697;SDS011;43531;52.152;6.366;2024-03-06T04:32:23;35.10;;;26.17;;
57697;SDS011;43531;52.152;6.366;2024-03-06T04:32:56;34.03;;;26.23;;
57697;SDS011;43531;52.152;6.366;2024-03-06T04:33:27;32.50;;;25.08;;
57697;SDS011;43531;52.152;6.366;2024-03-06T04:33:59;32.10;;;24.60;;
57697;SDS011;43531;52.152;6.366;2024-03-06T04:34:30;37.38;;;25.45;;
57697;SDS011;43531;52.152;6.366;2024-03-06T04:35:02;32.90;;;27.13;;
57697;SDS011;43531;52.152;6.366;2024-03-06T04:35:34;33.13;;;27.92;;
57697;SDS011;43531;52.152;6.366;2024-03-06T04:36:06;35.95;;;26.38;;
57697;SDS011;43531;52.152;6.366;2024-03-06T04:36:38;36.35;;;28.02;;
57697;SDS011;43531;52.152;6.366;2024-03-06T04:37:10;35.50;;;27.42;;
57697;SDS011;43531;52.152;6.366;2024-03-06T04:37:41;35.22;;;26.52;;
57697;SDS011;43531;52.152;6.366;2024-03-06T04:38:15;36.25;;;25.88;;
57697;SDS011;43531;52.152;6.366;2024-03-06T04:38:46;32.72;;;25.48;;
57697;SDS011;43531;52.152;6.366;2024-03-06T04:39:18;31.27;;;24.08;;
57697;SDS011;43531;52.152;6.366;2024-03-06T04:39:50;31.85;;;25.88;;
57697;SDS011;43531;52.152;6.366;2024-03-06T04:40:21;33.65;;;25.15;;
57697;SDS011;43531;52.152;6.366;2024-03-06T04:40:53;35.78;;;25.27;;
57697;SDS011;43531;52.152;6.366;2024-03-06T04:41:25;31.92;;;25.35;;
57697;SDS011;43531;52.152;6.366;2024-03-06T04:41:57;32.15;;;24.05;;
57697;SDS011;43531;52.152;6.366;2024-03-06T04:42:29;31.10;;;23.88;;
57697;SDS011;43531;52.152;6.366;2024-03-06T04:43:00;35.40;;;24.45;;
57697;SDS011;43531;52.152;6.366;2024-03-06T04:43:32;32.00;;;24.92;;
57697;SDS011;43531;52.152;6.366;2024-03-06T04:44:04;33.80;;;24.92;;
57697;SDS011;43531;52.152;6.366;2024-03-06T04:44:36;36.50;;;24.92;;
57697;SDS011;43531;52.152;6.366;2024-03-06T04:45:11;35.60;;;24.60;;
57697;SDS011;43531;52.152;6.366;2024-03-06T04:45:44;32.08;;;25.10;;
57697;SDS011;43531;52.152;6.366;2024-03-06T04:46:15;33.08;;;26.60;;
57697;SDS011;43531;52.152;6.366;2024-03-06T04:46:49;35.33;;;23.50;;
57697;SDS011;43531;52.152;6.366;2024-03-06T04:47:23;72.90;;;23.90;;
57697;SDS011;43531;52.152;6.366;2024-03-06T04:47:58;62.20;;;22.63;;
57697;SDS011;43531;52.152;6.366;2024-03-06T04:48:30;49.40;;;22.63;;
57697;SDS011;43531;52.152;6.366;2024-03-06T04:49:02;68.20;;;22.88;;
57697;SDS011;43531;52.152;6.366;2024-03-06T04:49:34;128.85;;;22.65;;
57697;SDS011;43531;52.152;6.366;2024-03-06T04:50:09;60.85;;;21.40;;
57697;SDS011;43531;52.152;6.366;2024-03-06T04:50:42;69.38;;;20.50;;
57697;SDS011;43531;52.152;6.366;2024-03-06T04:51:14;124.07;;;20.85;;
57697;SDS011;43531;52.152;6.366;2024-03-06T04:51:45;169.43;;;23.25;;
57697;SDS011;43531;52.152;6.366;2024-03-06T04:52:17;95.18;;;20.35;;
57697;SDS011;43531;52.152;6.366;2024-03-06T04:52:48;60.38;;;18.77;;
57697;SDS011;43531;52.152;6.366;2024-03-06T04:53:20;47.97;;;19.60;;
57697;SDS011;43531;52.152;6.366;2024-03-06T04:53:52;90.50;;;22.13;;
57697;SDS011;43531;52.152;6.366;2024-03-06T04:54:24;46.55;;;22.77;;
57697;SDS011;43531;52.152;6.366;2024-03-06T04:54:55;35.03;;;21.90;;
57697;SDS011;43531;52.152;6.366;2024-03-06T04:55:27;40.25;;;21.60;;
57697;SDS011;43531;52.152;6.366;2024-03-06T04:55:59;35.28;;;22.40;;
57697;SDS011;43531;52.152;6.366;2024-03-06T04:56:30;48.63;;;22.33;;
57697;SDS011;43531;52.152;6.366;2024-03-06T04:57:03;37.47;;;22.65;;
57697;SDS011;43531;52.152;6.366;2024-03-06T04:57:34;34.15;;;20.40;;
57697;SDS011;43531;52.152;6.366;2024-03-06T04:58:06;31.77;;;20.95;;
57697;SDS011;43531;52.152;6.366;2024-03-06T04:58:38;32.72;;;22.42;;
57697;SDS011;43531;52.152;6.366;2024-03-06T04:59:10;59.03;;;24.65;;
57697;SDS011;43531;52.152;6.366;2024-03-06T04:59:41;33.15;;;23.90;;
57697;SDS011;43531;52.152;6.366;2024-03-06T05:00:13;34.22;;;24.00;;
57697;SDS011;43531;52.152;6.366;2024-03-06T05:00:45;48.90;;;23.15;;
57697;SDS011;43531;52.152;6.366;2024-03-06T05:01:16;111.10;;;26.25;;
57697;SDS011;43531;52.152;6.366;2024-03-06T05:01:48;122.20;;;24.75;;
57697;SDS011;43531;52.152;6.366;2024-03-06T05:02:20;131.25;;;22.63;;
57697;SDS011;43531;52.152;6.366;2024-03-06T05:02:52;107.05;;;23.65;;
57697;SDS011;43531;52.152;6.366;2024-03-06T05:03:41;172.60;;;23.55;;
57697;SDS011;43531;52.152;6.366;2024-03-06T05:04:30;101.22;;;18.65;;
57697;SDS011;43531;52.152;6.366;2024-03-06T05:05:19;142.23;;;21.42;;
57697;SDS011;43531;52.152;6.366;2024-03-06T05:06:08;87.43;;;16.80;;
57697;SDS011;43531;52.152;6.366;2024-03-06T05:06:57;81.70;;;18.95;;
57697;SDS011;43531;52.152;6.366;2024-03-06T05:07:47;108.47;;;18.05;;
57697;SDS011;43531;52.152;6.366;2024-03-06T05:08:36;88.22;;;15.30;;
57697;SDS011;43531;52.152;6.366;2024-03-06T05:09:26;108.40;;;15.32;;
57697;SDS011;43531;52.152;6.366;2024-03-06T05:10:15;56.90;;;13.38;;
57697;SDS011;43531;52.152;6.366;2024-03-06T05:11:05;82.07;;;17.38;;
57697;SDS011;43531;52.152;6.366;2024-03-06T05:11:55;86.35;;;17.85;;
57697;SDS011;43531;52.152;6.366;2024-03-06T05:12:44;82.40;;;18.35;;
57697;SDS011;43531;52.152;6.366;2024-03-06T05:13:33;47.70;;;15.55;;
57697;SDS011;43531;52.152;6.366;2024-03-06T05:14:22;99.50;;;14.15;;
57697;SDS011;43531;52.152;6.366;2024-03-06T05:15:11;63.38;;;16.08;;
57697;SDS011;43531;52.152;6.366;2024-03-06T05:16:01;36.83;;;14.55;;
57697;SDS011;43531;52.152;6.366;2024-03-06T05:16:50;99.50;;;15.98;;
57697;SDS011;43531;52.152;6.366;2024-03-06T05:17:39;36.92;;;14.77;;
57697;SDS011;43531;52.152;6.366;2024-03-06T05:18:29;37.97;;;14.27;;
57697;SDS011;43531;52.152;6.366;2024-03-06T05:19:18;66.05;;;15.95;;
57697;SDS011;43531;52.152;6.366;2024-03-06T05:20:07;15.45;;;11.35;;
57697;SDS011;43531;52.152;6.366;2024-03-06T05:20:56;44.50;;;14.40;;
57697;SDS011;43531;52.152;6.366;2024-03-06T05:21:45;52.88;;;13.23;;
57697;SDS011;43531;52.152;6.366;2024-03-06T05:22:34;121.07;;;16.60;;
57697;SDS011;43531;52.152;6.366;2024-03-06T05:23:24;76.82;;;14.02;;
57697;SDS011;43531;52.152;6.366;2024-03-06T05:24:13;43.95;;;11.45;;
57697;SDS011;43531;52.152;6.366;2024-03-06T05:25:02;64.47;;;20.30;;
57697;SDS011;43531;52.152;6.366;2024-03-06T05:25:52;22.55;;;12.93;;
57697;SDS011;43531;52.152;6.366;2024-03-06T05:26:40;12.32;;;11.15;;
57697;SDS011;43531;52.152;6.366;2024-03-06T05:27:29;19.30;;;13.60;;
57697;SDS011;43531;52.152;6.366;2024-03-06T05:28:18;38.33;;;13.82;;
57697;SDS011;43531;52.152;6.366;2024-03-06T05:29:07;21.65;;;12.05;;
57697;SDS011;43531;52.152;6.366;2024-03-06T05:29:56;18.33;;;14.25;;
57697;SDS011;43531;52.152;6.366;2024-03-06T05:30:45;25.55;;;15.77;;
57697;SDS011;43531;52.152;6.366;2024-03-06T05:31:40;30.80;;;11.98;;
57697;SDS011;43531;52.152;6.366;2024-03-06T05:32:29;15.40;;;12.18;;
57697;SDS011;43531;52.152;6.366;2024-03-06T05:33:19;67.80;;;15.80;;
57697;SDS011;43531;52.152;6.366;2024-03-06T05:34:08;54.03;;;13.82;;
57697;SDS011;43531;52.152;6.366;2024-03-06T05:34:57;166.82;;;18.40;;
57697;SDS011;43531;52.152;6.366;2024-03-06T05:35:46;72.35;;;13.10;;
57697;SDS011;43531;52.152;6.366;2024-03-06T05:36:35;56.15;;;11.98;;
57697;SDS011;43531;52.152;6.366;2024-03-06T05:37:25;21.70;;;12.13;;
57697;SDS011;43531;52.152;6.366;2024-03-06T05:38:14;90.35;;;16.40;;
57697;SDS011;43531;52.152;6.366;2024-03-06T05:39:03;22.75;;;14.23;;
57697;SDS011;43531;52.152;6.366;2024-03-06T05:40:01;110.57;;;16.88;;
57697;SDS011;43531;52.152;6.366;2024-03-06T05:40:53;138.23;;;19.63;;
57697;SDS011;43531;52.152;6.366;2024-03-06T05:41:42;33.40;;;16.40;;
57697;SDS011;43531;52.152;6.366;2024-03-06T05:42:32;40.70;;;16.92;;
57697;SDS011;43531;52.152;6.366;2024-03-06T05:43:21;56.72;;;17.45;;
57697;SDS011;43531;52.152;6.366;2024-03-06T05:44:10;31.02;;;13.90;;
57697;SDS011;43531;52.152;6.366;2024-03-06T05:44:59;137.27;;;19.83;;
57697;SDS011;43531;52.152;6.366;2024-03-06T05:45:53;61.33;;;15.57;;
57697;SDS011;43531;52.152;6.366;2024-03-06T05:46:42;29.60;;;15.20;;
57697;SDS011;43531;52.152;6.366;2024-03-06T05:47:32;26.17;;;15.35;;
57697;SDS011;43531;52.152;6.366;2024-03-06T05:48:21;60.22;;;15.68;;
57697;SDS011;43531;52.152;6.366;2024-03-06T05:49:10;40.58;;;13.73;;
57697;SDS011;43531;52.152;6.366;2024-03-06T05:49:59;145.95;;;17.95;;
57697;SDS011;43531;52.152;6.366;2024-03-06T05:50:48;40.30;;;16.13;;
57697;SDS011;43531;52.152;6.366;2024-03-06T05:51:37;29.65;;;15.05;;
57697;SDS011;43531;52.152;6.366;2024-03-06T05:52:26;20.63;;;15.70;;
57697;SDS011;43531;52.152;6.366;2024-03-06T05:53:15;21.38;;;15.70;;
57697;SDS011;43531;52.152;6.366;2024-03-06T05:54:04;88.38;;;15.82;;
57697;SDS011;43531;52.152;6.366;2024-03-06T05:54:55;128.32;;;17.20;;
57697;SDS011;43531;52.152;6.366;2024-03-06T05:55:44;65.90;;;15.05;;
57697;SDS011;43531;52.152;6.366;2024-03-06T05:56:33;119.10;;;17.15;;
57697;SDS011;43531;52.152;6.366;2024-03-06T05:57:23;94.63;;;15.90;;
57697;SDS011;43531;52.152;6.366;2024-03-06T05:58:12;214.52;;;22.30;;
57697;SDS011;43531;52.152;6.366;2024-03-06T05:58:47;164.45;;;20.02;;
57697;SDS011;43531;52.152;6.366;2024-03-06T05:59:20;79.78;;;16.75;;
57697;SDS011;43531;52.152;6.366;2024-03-06T05:59:52;14.60;;;13.18;;
57697;SDS011;43531;52.152;6.366;2024-03-06T06:00:23;16.77;;;14.52;;
57697;SDS011;43531;52.152;6.366;2024-03-06T06:00:55;17.83;;;15.73;;
57697;SDS011;43531;52.152;6.366;2024-03-06T06:01:28;20.80;;;13.27;;
57697;SDS011;43531;52.152;6.366;2024-03-06T06:01:59;19.02;;;13.13;;
57697;SDS011;43531;52.152;6.366;2024-03-06T06:02:31;53.08;;;15.93;;
57697;SDS011;43531;52.152;6.366;2024-03-06T06:03:04;56.90;;;15.90;;
57697;SDS011;43531;52.152;6.366;2024-03-06T06:03:35;96.13;;;16.73;;
57697;SDS011;43531;52.152;6.366;2024-03-06T06:04:10;92.50;;;18.83;;
57697;SDS011;43531;52.152;6.366;2024-03-06T06:04:42;22.83;;;13.52;;
57697;SDS011;43531;52.152;6.366;2024-03-06T06:05:30;78.63;;;13.68;;
57697;SDS011;43531;52.152;6.366;2024-03-06T06:06:02;63.22;;;10.32;;
57697;SDS011;43531;52.152;6.366;2024-03-06T06:06:34;22.30;;;8.77;;
57697;SDS011;43531;52.152;6.366;2024-03-06T06:07:06;27.77;;;9.50;;
57697;SDS011;43531;52.152;6.366;2024-03-06T06:07:38;28.02;;;9.35;;
57697;SDS011;43531;52.152;6.366;2024-03-06T06:08:09;32.85;;;9.45;;
57697;SDS011;43531;52.152;6.366;2024-03-06T06:08:41;21.15;;;9.77;;
57697;SDS011;43531;52.152;6.366;2024-03-06T06:09:15;28.30;;;10.65;;
57697;SDS011;43531;52.152;6.366;2024-03-06T06:09:47;85.80;;;12.73;;
57697;SDS011;43531;52.152;6.366;2024-03-06T06:10:19;51.72;;;12.77;;
57697;SDS011;43531;52.152;6.366;2024-03-06T06:10:52;88.63;;;14.00;;
57697;SDS011;43531;52.152;6.366;2024-03-06T06:11:26;62.67;;;12.73;;
57697;SDS011;43531;52.152;6.366;2024-03-06T06:11:57;69.68;;;13.15;;
57697;SDS011;43531;52.152;6.366;2024-03-06T06:12:29;41.70;;;10.85;;
57697;SDS011;43531;52.152;6.366;2024-03-06T06:13:01;31.83;;;11.73;;
57697;SDS011;43531;52.152;6.366;2024-03-06T06:13:33;73.85;;;13.68;;
57697;SDS011;43531;52.152;6.366;2024-03-06T06:14:04;51.80;;;12.07;;
57697;SDS011;43531;52.152;6.366;2024-03-06T06:14:36;55.63;;;14.30;;
57697;SDS011;43531;52.152;6.366;2024-03-06T06:15:08;98.15;;;15.85;;
57697;SDS011;43531;52.152;6.366;2024-03-06T06:15:41;80.25;;;14.98;;
57697;SDS011;43531;52.152;6.366;2024-03-06T06:16:12;59.67;;;15.05;;
57697;SDS011;43531;52.152;6.366;2024-03-06T06:16:44;109.13;;;16.98;;
57697;SDS011;43531;52.152;6.366;2024-03-06T06:17:16;86.40;;;17.48;;
57697;SDS011;43531;52.152;6.366;2024-03-06T06:17:49;85.65;;;18.08;;
57697;SDS011;43531;52.152;6.366;2024-03-06T06:18:21;69.03;;;15.95;;
57697;SDS011;43531;52.152;6.366;2024-03-06T06:18:53;78.05;;;16.05;;
57697;SDS011;43531;52.152;6.366;2024-03-06T06:19:24;50.28;;;14.73;;
57697;SDS011;43531;52.152;6.366;2024-03-06T06:19:56;57.20;;;13.82;;
57697;SDS011;43531;52.152;6.366;2024-03-06T06:20:28;70.45;;;14.07;;
57697;SDS011;43531;52.152;6.366;2024-03-06T06:20:59;42.25;;;12.95;;
57697;SDS011;43531;52.152;6.366;2024-03-06T06:21:31;38.25;;;13.80;;
57697;SDS011;43531;52.152;6.366;2024-03-06T06:22:03;38.95;;;12.85;;
57697;SDS011;43531;52.152;6.366;2024-03-06T06:22:38;37.38;;;14.93;;
57697;SDS011;43531;52.152;6.366;2024-03-06T06:23:09;28.48;;;13.65;;
57697;SDS011;43531;52.152;6.366;2024-03-06T06:23:41;52.97;;;14.43;;
57697;SDS011;43531;52.152;6.366;2024-03-06T06:24:14;30.90;;;13.85;;
57697;SDS011;43531;52.152;6.366;2024-03-06T06:24:45;29.42;;;16.83;;
57697;SDS011;43531;52.152;6.366;2024-03-06T06:25:18;56.05;;;19.00;;
57697;SDS011;43531;52.152;6.366;2024-03-06T06:25:50;37.78;;;18.42;;
57697;SDS011;43531;52.152;6.366;2024-03-06T06:26:22;39.97;;;17.92;;
57697;SDS011;43531;52.152;6.366;2024-03-06T06:26:53;22.52;;;16.70;;
57697;SDS011;43531;52.152;6.366;2024-03-06T06:27:25;35.08;;;16.98;;
57697;SDS011;43531;52.152;6.366;2024-03-06T06:27:57;38.75;;;18.88;;
57697;SDS011;43531;52.152;6.366;2024-03-06T06:28:28;37.28;;;17.80;;
57697;SDS011;43531;52.152;6.366;2024-03-06T06:29:00;35.67;;;20.33;;
57697;SDS011;43531;52.152;6.366;2024-03-06T06:29:32;37.47;;;20.00;;
57697;SDS011;43531;52.152;6.366;2024-03-06T06:30:04;49.67;;;20.48;;
57697;SDS011;43531;52.152;6.366;2024-03-06T06:30:38;52.63;;;20.95;;
57697;SDS011;43531;52.152;6.366;2024-03-06T06:31:09;66.93;;;20.23;;
57697;SDS011;43531;52.152;6.366;2024-03-06T06:31:41;43.03;;;21.40;;
57697;SDS011;43531;52.152;6.366;2024-03-06T06:32:12;55.70;;;23.95;;
57697;SDS011;43531;52.152;6.366;2024-03-06T06:32:44;61.55;;;21.23;;
57697;SDS011;43531;52.152;6.366;2024-03-06T06:33:16;121.40;;;25.50;;
57697;SDS011;43531;52.152;6.366;2024-03-06T06:33:48;74.68;;;19.95;;
57697;SDS011;43531;52.152;6.366;2024-03-06T06:34:20;70.05;;;19.05;;
57697;SDS011;43531;52.152;6.366;2024-03-06T06:34:52;50.00;;;20.20;;
57697;SDS011;43531;52.152;6.366;2024-03-06T06:35:24;42.55;;;20.05;;
57697;SDS011;43531;52.152;6.366;2024-03-06T06:35:56;63.42;;;20.23;;
57697;SDS011;43531;52.152;6.366;2024-03-06T06:36:28;66.25;;;20.13;;
57697;SDS011;43531;52.152;6.366;2024-03-06T06:37:00;26.15;;;19.75;;